Time;durP1;ratioP1;P1;durP2;ratioP2;P2;SDS_P1;SDS_P2;PMS_P1;PMS_P2;Temp;Humidity;BMP_temperature;BMP_pressure;BME280_temperature;BME280_humidity;BME280_pressure;Samples;Min_cycle;Max_cycle;Signal;HPM_P1;HPM_P2
2022/08/16 00:01:10;;;;;;;11.23;6.75;;;;;;;;;;4938265;29;20031;-77
2022/08/16 00:03:36;;;;;;;7.97;6.90;;;;;;;;;;4938424;29;20042;-78
2022/08/16 00:06:03;;;;;;;8.20;6.32;;;;;;;;;;4938034;29;20110;-76
2022/08/16 00:08:29;;;;;;;7.55;6.30;;;;;;;;;;4938274;29;20490;-76
2022/08/16 00:10:54;;;;;;;7.88;6.38;;;;;;;;;;4937935;29;20024;-78
2022/08/16 00:13:20;;;;;;;10.15;6.03;;;;;;;;;;4937676;29;20083;-78
2022/08/16 00:15:48;;;;;;;11.38;6.38;;;;;;;;;;4937700;29;20023;-76
2022/08/16 00:18:16;;;;;;;10.82;7.07;;;;;;;;;;4937898;29;20031;-74
2022/08/16 00:20:45;;;;;;;8.85;6.40;;;;;;;;;;4937726;29;20040;-78
2022/08/16 00:23:12;;;;;;;7.93;5.95;;;;;;;;;;4937817;29;20072;-78
2022/08/16 00:25:39;;;;;;;9.70;5.93;;;;;;;;;;4936154;29;20043;-75
2022/08/16 00:28:05;;;;;;;11.10;5.93;;;;;;;;;;4937780;29;20036;-77
2022/08/16 00:30:32;;;;;;;10.50;6.78;;;;;;;;;;4938091;29;20447;-75
2022/08/16 00:33:00;;;;;;;10.15;6.55;;;;;;;;;;4937869;29;20032;-77
2022/08/16 00:35:32;;;;;;;8.57;5.80;;;;;;;;;;4937480;29;20471;-76
2022/08/16 00:38:01;;;;;;;8.38;5.75;;;;;;;;;;4937555;29;20107;-78
2022/08/16 00:40:36;;;;;;;8.02;5.75;;;;;;;;;;4937701;29;20094;-78
2022/08/16 00:43:33;;;;;;;7.75;5.28;;;;;;;;;;4936307;29;20421;-75
2022/08/16 00:46:24;;;;;;;6.93;5.25;;;;;;;;;;4935475;29;20044;-78
2022/08/16 00:48:51;;;;;;;7.82;5.88;;;;;;;;;;4935331;29;20067;-78
2022/08/16 00:51:20;;;;;;;9.35;5.82;;;;;;;;;;4937382;29;20090;-78
2022/08/16 00:53:47;;;;;;;6.82;5.70;;;;;;;;;;4937069;29;20032;-75
2022/08/16 00:56:17;;;;;;;8.88;6.57;;;;;;;;;;4936939;29;20024;-75
2022/08/16 00:58:46;;;;;;;7.07;5.63;;;;;;;;;;4937271;29;20086;-78
2022/08/16 01:01:13;;;;;;;12.95;6.78;;;;;;;;;;4928314;29;20063;-77
2022/08/16 01:03:42;;;;;;;11.35;6.60;;;;;;;;;;4956539;28;20035;-77
2022/08/16 01:06:11;;;;;;;9.65;6.25;;;;;;;;;;4956696;28;20062;-77
2022/08/16 01:08:37;;;;;;;9.68;5.88;;;;;;;;;;4956395;28;20047;-79
2022/08/16 01:11:04;;;;;;;8.18;5.80;;;;;;;;;;4956347;28;20023;-79
2022/08/16 01:13:32;;;;;;;9.93;6.63;;;;;;;;;;4939105;29;20046;-78
2022/08/16 01:16:23;;;;;;;8.10;6.35;;;;;;;;;;4936953;29;20114;-79
2022/08/16 01:18:56;;;;;;;11.25;6.18;;;;;;;;;;4934937;28;20625;-79
2022/08/16 01:21:45;;;;;;;8.13;6.80;;;;;;;;;;4956278;28;20217;-77
2022/08/16 01:24:33;;;;;;;10.13;6.13;;;;;;;;;;4955895;28;20043;-78
2022/08/16 01:27:04;;;;;;;11.18;6.68;;;;;;;;;;4938265;28;20063;-77
2022/08/16 01:29:40;;;;;;;7.45;6.22;;;;;;;;;;4955841;28;20042;-79
2022/08/16 01:32:05;;;;;;;10.15;6.00;;;;;;;;;;4956082;28;20054;-80
2022/08/16 01:34:31;;;;;;;10.88;5.93;;;;;;;;;;4955794;28;20466;-78
2022/08/16 01:37:06;;;;;;;7.88;6.15;;;;;;;;;;4955668;28;20079;-78
2022/08/16 01:39:33;;;;;;;12.05;6.45;;;;;;;;;;4938029;28;20376;-78
2022/08/16 01:42:00;;;;;;;7.35;6.03;;;;;;;;;;4954195;28;20043;-79
2022/08/16 01:44:28;;;;;;;8.52;5.95;;;;;;;;;;4938189;29;20070;-78
2022/08/16 01:46:56;;;;;;;8.82;6.32;;;;;;;;;;4938283;28;20070;-76
2022/08/16 01:49:31;;;;;;;8.95;6.20;;;;;;;;;;4938202;28;20063;-77
2022/08/16 01:52:02;;;;;;;6.97;5.60;;;;;;;;;;4955716;28;20047;-77
2022/08/16 01:54:51;;;;;;;6.55;5.45;;;;;;;;;;4954781;28;20090;-78
2022/08/16 01:57:17;;;;;;;8.73;5.53;;;;;;;;;;4937996;28;20042;-78
2022/08/16 01:59:43;;;;;;;7.38;5.55;;;;;;;;;;4938020;28;20023;-79
2022/08/16 02:02:15;;;;;;;7.50;6.68;;;;;;;;;;4938180;29;20134;-75
2022/08/16 02:04:41;;;;;;;11.60;7.00;;;;;;;;;;4955069;28;20036;-78
2022/08/16 02:07:08;;;;;;;9.23;7.03;;;;;;;;;;4955419;28;20023;-75
2022/08/16 02:09:36;;;;;;;12.70;6.82;;;;;;;;;;4953929;28;20035;-78
2022/08/16 02:12:06;;;;;;;12.88;7.03;;;;;;;;;;4937635;28;20031;-72
2022/08/16 02:14:35;;;;;;;8.73;7.13;;;;;;;;;;4937647;28;20035;-76
2022/08/16 02:17:04;;;;;;;9.18;6.32;;;;;;;;;;4937396;28;20039;-77
2022/08/16 02:19:33;;;;;;;8.35;5.40;;;;;;;;;;4954892;28;20417;-78
2022/08/16 02:22:00;;;;;;;6.55;5.85;;;;;;;;;;4954854;28;20386;-75
2022/08/16 02:24:26;;;;;;;9.38;6.32;;;;;;;;;;4937716;28;20035;-76
2022/08/16 02:26:52;;;;;;;9.15;6.15;;;;;;;;;;4954698;28;20045;-76
2022/08/16 02:29:19;;;;;;;9.88;6.68;;;;;;;;;;4954815;28;20785;-77
2022/08/16 02:31:48;;;;;;;9.63;6.50;;;;;;;;;;4937449;28;20102;-75
2022/08/16 02:34:16;;;;;;;10.35;6.45;;;;;;;;;;4937205;28;20399;-75
2022/08/16 02:36:42;;;;;;;7.95;6.38;;;;;;;;;;4953346;28;20023;-76
2022/08/16 02:39:10;;;;;;;9.00;6.00;;;;;;;;;;4937387;29;20051;-75
2022/08/16 02:41:39;;;;;;;9.55;7.20;;;;;;;;;;4937427;28;20047;-76
2022/08/16 02:44:05;;;;;;;6.32;5.53;;;;;;;;;;4954254;28;20038;-78
2022/08/16 02:46:32;;;;;;;8.25;5.75;;;;;;;;;;4937428;29;20122;-76
2022/08/16 02:48:59;;;;;;;9.82;5.90;;;;;;;;;;4954752;28;20042;-76
2022/08/16 02:51:26;;;;;;;9.63;6.72;;;;;;;;;;4952595;28;20031;-78
2022/08/16 02:53:53;;;;;;;8.35;5.97;;;;;;;;;;4935924;28;20039;-78
2022/08/16 02:56:21;;;;;;;8.60;6.63;;;;;;;;;;4936719;28;20058;-79
2022/08/16 02:58:50;;;;;;;12.48;7.03;;;;;;;;;;4952725;28;20039;-78
2022/08/16 03:01:24;;;;;;;9.82;6.88;;;;;;;;;;4953179;28;20131;-78
2022/08/16 03:03:53;;;;;;;8.93;6.00;;;;;;;;;;4944801;28;20047;-79
2022/08/16 03:06:20;;;;;;;7.28;5.93;;;;;;;;;;4934872;29;20024;-78
2022/08/16 03:08:49;;;;;;;9.27;6.45;;;;;;;;;;4933568;29;20036;-78
2022/08/16 03:11:17;;;;;;;9.52;5.78;;;;;;;;;;4933288;29;20502;-78
2022/08/16 03:13:52;;;;;;;7.80;6.15;;;;;;;;;;4933184;29;20036;-77
2022/08/16 03:16:19;;;;;;;9.15;5.88;;;;;;;;;;4937381;28;20040;-77
2022/08/16 03:18:45;;;;;;;7.60;6.05;;;;;;;;;;4952734;28;20360;-77
2022/08/16 03:21:11;;;;;;;10.05;6.50;;;;;;;;;;4952151;28;20122;-76
2022/08/16 03:23:39;;;;;;;10.38;6.00;;;;;;;;;;4936512;28;20602;-79
2022/08/16 03:26:07;;;;;;;9.98;6.70;;;;;;;;;;4953800;28;20043;-76
2022/08/16 03:28:33;;;;;;;14.93;6.60;;;;;;;;;;4952617;28;20034;-77
2022/08/16 03:30:59;;;;;;;9.98;6.03;;;;;;;;;;4952656;28;20028;-75
2022/08/16 03:33:27;;;;;;;9.48;6.30;;;;;;;;;;4952616;28;20027;-83
2022/08/16 03:35:58;;;;;;;7.40;5.70;;;;;;;;;;4948780;28;20579;-78
2022/08/16 03:38:33;;;;;;;10.43;5.82;;;;;;;;;;4931437;29;20032;-79
2022/08/16 03:41:02;;;;;;;8.05;5.72;;;;;;;;;;4913106;29;20335;-78
2022/08/16 03:43:29;;;;;;;17.10;6.07;;;;;;;;;;4922388;29;20031;-78
2022/08/16 03:45:56;;;;;;;8.35;5.95;;;;;;;;;;4916625;29;20112;-82
2022/08/16 03:48:32;;;;;;;10.85;6.28;;;;;;;;;;4914169;29;20039;-80
2022/08/16 03:51:03;;;;;;;9.30;6.20;;;;;;;;;;4939641;29;20049;-79
2022/08/16 03:53:34;;;;;;;9.55;6.18;;;;;;;;;;4916936;29;20028;-78
2022/08/16 03:56:00;;;;;;;9.65;6.30;;;;;;;;;;4932051;29;20040;-78
2022/08/16 03:58:26;;;;;;;10.55;6.25;;;;;;;;;;4931073;29;20181;-77
2022/08/16 04:00:54;;;;;;;8.23;5.68;;;;;;;;;;4917222;29;20046;-78
2022/08/16 04:03:21;;;;;;;11.68;5.80;;;;;;;;;;4932192;29;20039;-77
2022/08/16 04:05:49;;;;;;;14.27;6.78;;;;;;;;;;4919535;29;20479;-78
2022/08/16 04:08:20;;;;;;;14.00;6.63;;;;;;;;;;4898300;29;20036;-81
2022/08/16 04:10:49;;;;;;;15.85;7.82;;;;;;;;;;4914192;29;20048;-77
2022/08/16 04:13:15;;;;;;;15.00;8.00;;;;;;;;;;4914431;29;20056;-79
2022/08/16 04:15:42;;;;;;;14.88;7.45;;;;;;;;;;4913526;29;20076;-80
2022/08/16 04:18:15;;;;;;;13.88;6.95;;;;;;;;;;4912933;29;20035;-77
2022/08/16 04:20:41;;;;;;;8.95;6.60;;;;;;;;;;4913675;29;20036;-78
2022/08/16 04:23:08;;;;;;;19.40;7.70;;;;;;;;;;4915383;29;20063;-76
2022/08/16 04:25:37;;;;;;;12.73;6.57;;;;;;;;;;4902026;29;20040;-79
2022/08/16 04:28:05;;;;;;;11.93;7.10;;;;;;;;;;4936534;29;20379;-79
2022/08/16 04:30:31;;;;;;;10.18;7.68;;;;;;;;;;4927462;29;20507;-79
2022/08/16 04:32:57;;;;;;;10.95;7.20;;;;;;;;;;4918539;29;20055;-80
2022/08/16 04:35:25;;;;;;;11.45;7.10;;;;;;;;;;4918236;29;20032;-78
2022/08/16 04:37:51;;;;;;;10.90;6.75;;;;;;;;;;4918156;29;20102;-78
2022/08/16 04:40:23;;;;;;;9.98;5.75;;;;;;;;;;4939394;29;20046;-75
2022/08/16 04:42:51;;;;;;;7.60;5.80;;;;;;;;;;4939712;29;20035;-79
2022/08/16 04:45:18;;;;;;;6.90;5.60;;;;;;;;;;4939975;29;20035;-76
2022/08/16 04:47:45;;;;;;;9.80;5.85;;;;;;;;;;4957101;29;20095;-76
2022/08/16 04:50:20;;;;;;;11.73;6.38;;;;;;;;;;4939752;29;20486;-78
2022/08/16 04:53:05;;;;;;;7.60;5.90;;;;;;;;;;4955201;29;20521;-78
2022/08/16 04:55:34;;;;;;;9.63;6.28;;;;;;;;;;4932568;29;20064;-78
2022/08/16 04:58:01;;;;;;;9.20;5.78;;;;;;;;;;4917226;29;20028;-77
2022/08/16 05:00:33;;;;;;;8.95;5.80;;;;;;;;;;4917696;29;20127;-79
2022/08/16 05:03:09;;;;;;;15.27;6.25;;;;;;;;;;4901792;29;20032;-81
2022/08/16 05:05:43;;;;;;;8.82;5.60;;;;;;;;;;4930165;29;20035;-77
2022/08/16 05:08:09;;;;;;;9.35;5.70;;;;;;;;;;4939770;29;20046;-78
2022/08/16 05:10:39;;;;;;;9.50;5.13;;;;;;;;;;4932023;29;20387;-78
2022/08/16 05:13:06;;;;;;;10.68;5.30;;;;;;;;;;4916360;29;20036;-79
2022/08/16 05:15:33;;;;;;;8.85;5.70;;;;;;;;;;4916974;29;20040;-80
2022/08/16 05:17:59;;;;;;;9.65;5.25;;;;;;;;;;4928954;29;20040;-83
2022/08/16 05:20:28;;;;;;;10.63;5.72;;;;;;;;;;4920642;29;20059;-82
2022/08/16 05:22:56;;;;;;;18.55;5.75;;;;;;;;;;4920631;29;20399;-82
2022/08/16 05:25:22;;;;;;;8.05;5.05;;;;;;;;;;4920672;29;20039;-79
2022/08/16 05:27:51;;;;;;;7.93;5.47;;;;;;;;;;4920741;29;20036;-81
2022/08/16 05:30:19;;;;;;;6.85;5.45;;;;;;;;;;4920821;29;20075;-80
2022/08/16 05:32:45;;;;;;;7.93;5.60;;;;;;;;;;4912159;29;20036;-84
2022/08/16 05:35:13;;;;;;;8.80;5.70;;;;;;;;;;4917212;29;20028;-81
2022/08/16 05:37:55;;;;;;;;;;;;;;;;;;4917858;29;20558;-82
2022/08/16 05:40:21;;;;;;;7.32;6.00;;;;;;;;;;4917230;29;19958;-82
2022/08/16 05:42:48;;;;;;;8.00;5.82;;;;;;;;;;4917632;29;20495;-82
2022/08/16 05:45:14;;;;;;;8.77;5.47;;;;;;;;;;4917259;29;20037;-79
2022/08/16 05:47:41;;;;;;;8.00;5.80;;;;;;;;;;4917191;29;20032;-77
2022/08/16 05:50:07;;;;;;;6.80;5.85;;;;;;;;;;4916948;29;20040;-79
2022/08/16 05:52:34;;;;;;;6.47;5.35;;;;;;;;;;4917164;29;20127;-78
2022/08/16 05:55:02;;;;;;;9.43;6.43;;;;;;;;;;4916598;29;20040;-79
2022/08/16 05:57:32;;;;;;;9.38;6.20;;;;;;;;;;4916771;29;20032;-81
2022/08/16 05:59:59;;;;;;;7.22;5.65;;;;;;;;;;4901279;29;20043;-78
2022/08/16 06:02:29;;;;;;;10.32;5.60;;;;;;;;;;4916828;29;20043;-80
2022/08/16 06:04:57;;;;;;;9.57;5.80;;;;;;;;;;4936204;29;20119;-82
2022/08/16 06:07:24;;;;;;;6.82;5.40;;;;;;;;;;4919731;29;20119;-83
2022/08/16 06:09:57;;;;;;;13.40;5.97;;;;;;;;;;4918878;29;20554;-76
2022/08/16 06:12:24;;;;;;;9.20;5.60;;;;;;;;;;4934961;29;20066;-79
2022/08/16 06:14:51;;;;;;;8.80;5.53;;;;;;;;;;4934924;29;20035;-79
2022/08/16 06:17:18;;;;;;;9.10;5.72;;;;;;;;;;4930235;29;20040;-77
2022/08/16 06:19:46;;;;;;;7.43;5.03;;;;;;;;;;4900527;29;20028;-81
2022/08/16 06:22:13;;;;;;;8.25;4.97;;;;;;;;;;4900008;29;20451;-79
2022/08/16 06:24:40;;;;;;;6.38;5.30;;;;;;;;;;4933124;29;20031;-78
2022/08/16 06:27:06;;;;;;;12.55;5.90;;;;;;;;;;4915458;29;20039;-79
2022/08/16 06:29:33;;;;;;;7.90;5.28;;;;;;;;;;4919234;29;20032;-78
2022/08/16 06:31:59;;;;;;;13.52;5.35;;;;;;;;;;4918026;29;20040;-77
2022/08/16 06:34:27;;;;;;;6.05;5.25;;;;;;;;;;4911558;29;20031;-76
2022/08/16 06:36:53;;;;;;;10.40;5.70;;;;;;;;;;4917371;29;20465;-76
2022/08/16 06:39:22;;;;;;;8.05;5.47;;;;;;;;;;4927544;29;20195;-79
2022/08/16 06:42:01;;;;;;;6.93;5.72;;;;;;;;;;4926455;29;20507;-77
2022/08/16 06:44:54;;;;;;;7.30;5.80;;;;;;;;;;4913047;29;20051;-76
2022/08/16 06:47:43;;;;;;;7.90;5.75;;;;;;;;;;4926911;29;20570;-75
2022/08/16 06:50:10;;;;;;;5.75;5.13;;;;;;;;;;4918004;29;20094;-76
2022/08/16 06:52:42;;;;;;;7.60;5.80;;;;;;;;;;4935411;29;20070;-77
2022/08/16 06:55:12;;;;;;;11.77;5.68;;;;;;;;;;4916936;29;20495;-78
2022/08/16 06:57:42;;;;;;;8.52;5.22;;;;;;;;;;4915465;29;20507;-81
2022/08/16 07:00:12;;;;;;;7.20;5.00;;;;;;;;;;4929214;29;20395;-80
2022/08/16 07:02:43;;;;;;;10.70;8.43;;;;;;;;;;4920823;29;20052;-83
2022/08/16 07:05:12;;;;;;;6.40;5.75;;;;;;;;;;4915855;29;20499;-85
2022/08/16 07:07:39;;;;;;;7.53;6.10;;;;;;;;;;4904229;29;20054;-86
2022/08/16 07:10:08;;;;;;;7.53;5.90;;;;;;;;;;4918075;29;20040;-84
2022/08/16 07:12:34;;;;;;;6.28;5.15;;;;;;;;;;4920029;29;20032;-85
2022/08/16 07:15:02;;;;;;;6.32;5.20;;;;;;;;;;4947524;29;20317;-81
2022/08/16 07:17:28;;;;;;;7.45;5.57;;;;;;;;;;4936873;29;20478;-82
2022/08/16 07:19:55;;;;;;;6.63;5.13;;;;;;;;;;4928338;29;20119;-87
2022/08/16 07:22:25;;;;;;;10.40;5.80;;;;;;;;;;4915522;29;20369;-83
2022/08/16 07:24:52;;;;;;;7.07;5.38;;;;;;;;;;4941947;29;20042;-90
2022/08/16 07:27:18;;;;;;;9.73;5.47;;;;;;;;;;4936249;29;20031;-79
2022/08/16 07:29:44;;;;;;;7.22;5.30;;;;;;;;;;4936193;29;20032;-79
2022/08/16 07:32:11;;;;;;;7.82;4.95;;;;;;;;;;4936571;29;20118;-84
2022/08/16 07:34:37;;;;;;;6.18;4.70;;;;;;;;;;4953187;29;20114;-81
2022/08/16 07:37:06;;;;;;;7.65;5.47;;;;;;;;;;4920650;29;20031;-81
2022/08/16 07:39:50;;;;;;;10.55;5.80;;;;;;;;;;4935455;29;20051;-84
2022/08/16 07:42:17;;;;;;;7.30;5.28;;;;;;;;;;4936105;29;20066;-81
2022/08/16 07:44:42;;;;;;;6.85;4.90;;;;;;;;;;4934531;29;20486;-82
2022/08/16 07:47:08;;;;;;;6.32;4.95;;;;;;;;;;4928787;29;20043;-78
2022/08/16 07:49:35;;;;;;;6.47;5.30;;;;;;;;;;4927468;29;20106;-78
2022/08/16 07:52:04;;;;;;;6.85;4.70;;;;;;;;;;4937892;29;20398;-80
2022/08/16 07:54:31;;;;;;;6.55;4.82;;;;;;;;;;4936849;29;20028;-81
2022/08/16 07:56:57;;;;;;;9.25;4.45;;;;;;;;;;4936788;29;20071;-82
2022/08/16 07:59:24;;;;;;;5.93;4.25;;;;;;;;;;4939606;29;20034;-81
2022/08/16 08:01:54;;;;;;;5.80;4.75;;;;;;;;;;4940492;29;20039;-83
2022/08/16 08:04:22;;;;;;;6.03;4.10;;;;;;;;;;4939973;29;20030;-82
2022/08/16 08:06:48;;;;;;;8.18;4.55;;;;;;;;;;4925661;29;20047;-80
2022/08/16 08:09:15;;;;;;;6.00;4.78;;;;;;;;;;4915790;29;20062;-82
2022/08/16 08:11:41;;;;;;;6.65;4.10;;;;;;;;;;4905255;29;20060;-78
2022/08/16 08:14:08;;;;;;;8.98;5.10;;;;;;;;;;4922304;29;20115;-79
2022/08/16 08:16:42;;;;;;;6.00;4.30;;;;;;;;;;4918143;29;20043;-79
2022/08/16 08:19:11;;;;;;;5.28;4.70;;;;;;;;;;4935950;29;20490;-84
2022/08/16 08:21:41;;;;;;;6.03;4.50;;;;;;;;;;4934862;29;20044;-83
2022/08/16 08:24:09;;;;;;;12.20;4.75;;;;;;;;;;4919844;29;20395;-85
2022/08/16 08:26:39;;;;;;;6.90;4.60;;;;;;;;;;4902253;29;20119;-84
2022/08/16 08:29:05;;;;;;;11.68;4.68;;;;;;;;;;4917502;29;20067;-82
2022/08/16 08:31:31;;;;;;;7.00;4.00;;;;;;;;;;4917861;29;20656;-81
2022/08/16 08:33:59;;;;;;;6.30;4.07;;;;;;;;;;4900571;29;20092;-79
2022/08/16 08:36:29;;;;;;;8.77;4.20;;;;;;;;;;4900771;29;20433;-82
2022/08/16 08:38:56;;;;;;;7.53;3.67;;;;;;;;;;4916805;29;20051;-84
2022/08/16 08:41:27;;;;;;;9.95;4.05;;;;;;;;;;4901270;29;20066;-83
2022/08/16 08:43:54;;;;;;;8.40;4.28;;;;;;;;;;4903996;29;20047;-78
2022/08/16 08:46:22;;;;;;;8.23;4.63;;;;;;;;;;4920530;29;20070;-79
2022/08/16 08:48:52;;;;;;;5.63;4.38;;;;;;;;;;4920559;29;20447;-84
2022/08/16 08:51:19;;;;;;;6.72;3.85;;;;;;;;;;4921727;29;20039;-82
2022/08/16 08:53:52;;;;;;;;;;;;;;;;;;4937393;29;20024;-85
2022/08/16 08:56:18;;;;;;;6.63;4.03;;;;;;;;;;4937349;29;20354;-82
2022/08/16 08:58:44;;;;;;;7.57;4.13;;;;;;;;;;4936909;29;20376;-82
2022/08/16 09:01:25;;;;;;;4.95;3.80;;;;;;;;;;4939878;29;20044;-79
2022/08/16 09:03:51;;;;;;;4.15;3.67;;;;;;;;;;4923721;29;20040;-86
2022/08/16 09:06:17;;;;;;;6.30;3.85;;;;;;;;;;4921109;29;20031;-86
2022/08/16 09:08:43;;;;;;;5.72;3.72;;;;;;;;;;4954880;29;20078;-85
2022/08/16 09:11:12;;;;;;;8.23;4.15;;;;;;;;;;4938394;29;20039;-81
2022/08/16 09:13:39;;;;;;;5.68;3.85;;;;;;;;;;4939725;29;20558;-84
2022/08/16 09:16:06;;;;;;;4.32;3.50;;;;;;;;;;4957298;29;20498;-85
2022/08/16 09:18:35;;;;;;;7.10;3.78;;;;;;;;;;4939591;29;20086;-80
2022/08/16 09:21:01;;;;;;;4.72;4.20;;;;;;;;;;4955489;29;20027;-83
2022/08/16 09:23:30;;;;;;;6.63;3.72;;;;;;;;;;4957187;29;20197;-79
2022/08/16 09:25:56;;;;;;;6.22;3.58;;;;;;;;;;4939695;29;20027;-78
2022/08/16 09:28:23;;;;;;;8.05;3.42;;;;;;;;;;4956279;29;20046;-83
2022/08/16 09:30:56;;;;;;;6.72;3.67;;;;;;;;;;4939217;29;20027;-80
2022/08/16 09:33:22;;;;;;;5.85;3.60;;;;;;;;;;4956924;29;20035;-79
2022/08/16 09:35:49;;;;;;;5.57;4.07;;;;;;;;;;4957146;29;20081;-79
2022/08/16 09:38:15;;;;;;;6.07;3.58;;;;;;;;;;4957082;29;20050;-80
2022/08/16 09:40:42;;;;;;;7.97;3.92;;;;;;;;;;4956557;29;20395;-75
2022/08/16 09:43:13;;;;;;;6.28;3.80;;;;;;;;;;4953086;29;21493;-77
2022/08/16 09:45:41;;;;;;;4.95;3.78;;;;;;;;;;4946092;29;20046;-82
2022/08/16 09:48:09;;;;;;;6.28;3.92;;;;;;;;;;4956040;29;20027;-79
2022/08/16 09:50:38;;;;;;;5.05;3.40;;;;;;;;;;4955854;29;20038;-82
2022/08/16 09:53:13;;;;;;;5.25;3.35;;;;;;;;;;4956164;29;20077;-81
2022/08/16 09:55:40;;;;;;;4.38;3.30;;;;;;;;;;4950170;29;20056;-83
2022/08/16 09:58:06;;;;;;;5.05;3.33;;;;;;;;;;4935973;29;20471;-79
2022/08/16 10:00:32;;;;;;;4.45;3.40;;;;;;;;;;4936427;29;20042;-77
2022/08/16 10:02:58;;;;;;;4.55;3.10;;;;;;;;;;4943133;29;20130;-83
2022/08/16 10:05:24;;;;;;;5.15;3.53;;;;;;;;;;4955798;29;20426;-76
2022/08/16 10:07:53;;;;;;;5.43;3.33;;;;;;;;;;4955802;29;20034;-78
2022/08/16 10:10:21;;;;;;;4.35;3.13;;;;;;;;;;4955539;29;20485;-80
2022/08/16 10:15:33;;;;;;;4.35;2.95;;;;;;;;;;4946471;29;20059;-77
2022/08/16 10:17:59;;;;;;;3.88;2.83;;;;;;;;;;4936186;29;20030;-80
2022/08/16 10:20:25;;;;;;;5.45;3.47;;;;;;;;;;4936076;29;20462;-78
2022/08/16 10:22:51;;;;;;;4.10;3.08;;;;;;;;;;4918461;29;20372;-79
2022/08/16 10:25:18;;;;;;;5.13;3.20;;;;;;;;;;4935997;29;20043;-79
2022/08/16 10:27:47;;;;;;;4.18;2.70;;;;;;;;;;4935731;29;20028;-78
2022/08/16 10:30:15;;;;;;;6.85;3.30;;;;;;;;;;4935850;29;20127;-79
2022/08/16 10:32:41;;;;;;;4.82;3.20;;;;;;;;;;4935766;29;20554;-80
2022/08/16 10:35:08;;;;;;;4.93;2.80;;;;;;;;;;4935663;29;20040;-81
2022/08/16 10:37:33;;;;;;;8.55;3.90;;;;;;;;;;4935575;29;20110;-81
2022/08/16 10:40:00;;;;;;;3.70;2.80;;;;;;;;;;4935613;29;20182;-79
2022/08/16 10:42:27;;;;;;;4.15;2.88;;;;;;;;;;4935542;29;20058;-77
2022/08/16 10:44:53;;;;;;;5.35;2.95;;;;;;;;;;4935333;29;20491;-79
2022/08/16 10:47:19;;;;;;;3.67;2.85;;;;;;;;;;4934623;29;20019;-74
2022/08/16 10:49:45;;;;;;;4.38;2.83;;;;;;;;;;4934848;29;20487;-78
2022/08/16 10:52:12;;;;;;;6.97;2.50;;;;;;;;;;4934935;29;20032;-77
2022/08/16 10:54:39;;;;;;;4.72;2.92;;;;;;;;;;4935903;29;20087;-80
2022/08/16 10:57:05;;;;;;;3.55;2.70;;;;;;;;;;4935902;29;20423;-78
2022/08/16 10:59:33;;;;;;;4.38;3.03;;;;;;;;;;4935715;29;20083;-77
2022/08/16 11:02:00;;;;;;;6.70;2.63;;;;;;;;;;4935966;29;20028;-80
2022/08/16 11:04:26;;;;;;;5.70;3.08;;;;;;;;;;4935511;29;20036;-80
2022/08/16 11:06:53;;;;;;;5.85;2.67;;;;;;;;;;4935857;29;20038;-75
2022/08/16 11:09:19;;;;;;;6.10;2.38;;;;;;;;;;4935780;29;20548;-77
2022/08/16 11:11:45;;;;;;;4.22;2.60;;;;;;;;;;4935661;29;20210;-77
2022/08/16 11:14:12;;;;;;;8.35;3.13;;;;;;;;;;4936211;29;20062;-78
2022/08/16 11:16:39;;;;;;;5.05;2.78;;;;;;;;;;4936035;29;20028;-81
2022/08/16 11:19:05;;;;;;;3.78;2.85;;;;;;;;;;4919477;29;20040;-81
2022/08/16 11:21:31;;;;;;;5.18;3.00;;;;;;;;;;4935620;29;20471;-84
2022/08/16 11:23:58;;;;;;;7.25;2.67;;;;;;;;;;4936135;29;20039;-75
2022/08/16 11:26:24;;;;;;;6.35;2.60;;;;;;;;;;4935484;29;20028;-77
2022/08/16 11:28:50;;;;;;;5.78;2.88;;;;;;;;;;4935838;29;20036;-81
2022/08/16 11:31:17;;;;;;;4.88;3.05;;;;;;;;;;4934457;29;20041;-77
2022/08/16 11:33:43;;;;;;;8.27;2.88;;;;;;;;;;4933426;29;20487;-76
2022/08/16 11:36:09;;;;;;;7.85;2.88;;;;;;;;;;4941444;29;20029;-76
2022/08/16 11:38:35;;;;;;;3.50;2.53;;;;;;;;;;4935076;29;20083;-79
2022/08/16 11:41:02;;;;;;;6.43;2.47;;;;;;;;;;4934762;29;20483;-79
2022/08/16 11:43:31;;;;;;;3.53;2.47;;;;;;;;;;4933694;29;20043;-80
2022/08/16 11:45:59;;;;;;;4.53;2.63;;;;;;;;;;4935193;29;20431;-77
2022/08/16 11:48:27;;;;;;;7.15;3.05;;;;;;;;;;4934592;29;20040;-76
2022/08/16 11:50:53;;;;;;;6.85;2.50;;;;;;;;;;4934942;29;20103;-77
2022/08/16 11:53:21;;;;;;;5.53;2.60;;;;;;;;;;4932871;29;20039;-83
2022/08/16 11:55:47;;;;;;;6.88;2.75;;;;;;;;;;4935086;29;20479;-77
2022/08/16 11:58:13;;;;;;;4.75;2.70;;;;;;;;;;4943886;29;20039;-84
2022/08/16 12:00:42;;;;;;;6.15;2.80;;;;;;;;;;4948689;29;20387;-79
2022/08/16 12:03:09;;;;;;;4.60;2.97;;;;;;;;;;4934641;29;20043;-85
2022/08/16 12:05:36;;;;;;;6.88;3.25;;;;;;;;;;4934838;29;20028;-76
2022/08/16 12:08:06;;;;;;;4.35;2.38;;;;;;;;;;4935052;29;20039;-80
2022/08/16 12:10:34;;;;;;;9.23;3.30;;;;;;;;;;4918273;29;20043;-79
2022/08/16 12:13:00;;;;;;;5.35;2.78;;;;;;;;;;4934972;29;20030;-79
2022/08/16 12:15:26;;;;;;;5.97;2.95;;;;;;;;;;4934445;29;20072;-81
2022/08/16 12:17:55;;;;;;;7.45;2.80;;;;;;;;;;4950178;29;20038;-79
2022/08/16 12:20:28;;;;;;;7.07;2.72;;;;;;;;;;4954051;29;20119;-79
2022/08/16 12:22:55;;;;;;;4.78;2.80;;;;;;;;;;4953918;29;20122;-79
2022/08/16 12:25:24;;;;;;;5.60;2.42;;;;;;;;;;4942042;29;20027;-80
2022/08/16 12:27:51;;;;;;;4.80;3.10;;;;;;;;;;4930637;29;20139;-77
2022/08/16 12:30:30;;;;;;;4.70;2.67;;;;;;;;;;4934445;29;20087;-76
2022/08/16 12:32:57;;;;;;;8.57;2.65;;;;;;;;;;4934944;29;20091;-78
2022/08/16 12:35:25;;;;;;;4.55;2.90;;;;;;;;;;4934711;29;20028;-82
2022/08/16 12:37:52;;;;;;;3.22;2.33;;;;;;;;;;4933274;29;20030;-76
2022/08/16 12:40:22;;;;;;;4.32;2.50;;;;;;;;;;4936963;29;20107;-77
2022/08/16 12:42:49;;;;;;;4.78;2.20;;;;;;;;;;4926273;29;20039;-81
2022/08/16 12:45:18;;;;;;;4.78;2.22;;;;;;;;;;4915472;29;20032;-78
2022/08/16 12:50:29;;;;;;;7.35;2.58;;;;;;;;;;4919362;29;20040;-82
2022/08/16 12:52:55;;;;;;;5.25;2.45;;;;;;;;;;4922304;29;20369;-85
2022/08/16 12:55:22;;;;;;;5.13;2.95;;;;;;;;;;4927227;29;20028;-78
2022/08/16 12:57:51;;;;;;;14.27;11.52;;;;;;;;;;4923728;29;20083;-75
2022/08/16 13:00:18;;;;;;;4.20;2.15;;;;;;;;;;4929761;29;20043;-86
2022/08/16 13:02:45;;;;;;;6.65;2.50;;;;;;;;;;4936661;29;20032;-75
2022/08/16 13:05:11;;;;;;;4.78;2.50;;;;;;;;;;4936012;29;20057;-75
2022/08/16 13:07:38;;;;;;;6.20;2.80;;;;;;;;;;4935644;29;20028;-79
2022/08/16 13:10:12;;;;;;;6.10;2.38;;;;;;;;;;4917402;29;20062;-78
2022/08/16 13:12:45;;;;;;;7.18;2.50;;;;;;;;;;4920464;29;20036;-81
2022/08/16 13:15:14;;;;;;;7.30;2.55;;;;;;;;;;4936034;29;20070;-76
2022/08/16 13:17:41;;;;;;;5.03;2.60;;;;;;;;;;4935991;29;20094;-78
2022/08/16 13:20:11;;;;;;;4.85;2.30;;;;;;;;;;4936833;29;20424;-81
2022/08/16 13:22:42;;;;;;;6.10;2.80;;;;;;;;;;4936087;29;20040;-79
2022/08/16 13:25:09;;;;;;;6.63;2.55;;;;;;;;;;4949122;29;20119;-82
2022/08/16 13:27:35;;;;;;;5.18;2.42;;;;;;;;;;4955311;29;20031;-81
2022/08/16 13:30:02;;;;;;;6.93;2.60;;;;;;;;;;4954259;29;20046;-78
2022/08/16 13:32:27;;;;;;;6.82;2.45;;;;;;;;;;4955932;29;20035;-80
2022/08/16 13:34:53;;;;;;;4.80;2.30;;;;;;;;;;4955528;29;20522;-83
2022/08/16 13:37:19;;;;;;;5.03;2.58;;;;;;;;;;4955212;29;20073;-80
2022/08/16 13:39:45;;;;;;;5.95;2.50;;;;;;;;;;4955459;29;20074;-82
2022/08/16 13:42:12;;;;;;;6.85;2.50;;;;;;;;;;4938180;29;20043;-80
2022/08/16 13:44:39;;;;;;;5.88;2.42;;;;;;;;;;4935800;29;20038;-79
2022/08/16 13:47:06;;;;;;;5.75;2.63;;;;;;;;;;4936316;29;20043;-79
2022/08/16 13:49:33;;;;;;;6.05;2.33;;;;;;;;;;4936366;29;20038;-80
2022/08/16 13:52:00;;;;;;;4.50;2.40;;;;;;;;;;4935685;29;20115;-76
2022/08/16 13:54:26;;;;;;;7.63;2.83;;;;;;;;;;4935269;29;20167;-79
2022/08/16 13:56:52;;;;;;;4.50;2.63;;;;;;;;;;4935765;29;20137;-78
2022/08/16 13:59:18;;;;;;;5.57;2.40;;;;;;;;;;4934597;29;20584;-80
2022/08/16 14:01:45;;;;;;;6.57;2.80;;;;;;;;;;4934545;29;20114;-79
2022/08/16 14:04:13;;;;;;;6.70;2.95;;;;;;;;;;4936062;29;20123;-80
2022/08/16 14:06:38;;;;;;;5.85;2.42;;;;;;;;;;4937072;29;20027;-85
2022/08/16 14:09:04;;;;;;;5.45;2.28;;;;;;;;;;4932404;29;20399;-88
2022/08/16 14:11:30;;;;;;;3.75;2.40;;;;;;;;;;4917265;29;20028;-81
2022/08/16 14:13:57;;;;;;;7.10;2.90;;;;;;;;;;4917130;29;20391;-76
2022/08/16 14:16:24;;;;;;;7.90;2.35;;;;;;;;;;4917821;29;20024;-79
2022/08/16 14:18:51;;;;;;;5.45;2.55;;;;;;;;;;4930798;29;20547;-77
2022/08/16 14:21:17;;;;;;;8.70;2.70;;;;;;;;;;4925160;29;20032;-77
2022/08/16 14:23:43;;;;;;;5.57;3.03;;;;;;;;;;4919595;29;20115;-77
2022/08/16 14:26:09;;;;;;;12.38;4.00;;;;;;;;;;4933698;29;20455;-78
2022/08/16 14:28:35;;;;;;;6.50;2.75;;;;;;;;;;4920420;29;20036;-78
2022/08/16 14:31:01;;;;;;;7.20;2.60;;;;;;;;;;4925530;29;20518;-76
2022/08/16 14:33:26;;;;;;;6.65;2.72;;;;;;;;;;4936120;29;20043;-75
2022/08/16 14:35:52;;;;;;;6.65;3.00;;;;;;;;;;4928219;29;20020;-74
2022/08/16 14:38:20;;;;;;;8.18;2.75;;;;;;;;;;4931659;29;20059;-77
2022/08/16 14:40:49;;;;;;;6.97;2.75;;;;;;;;;;4928933;29;20132;-76
2022/08/16 14:43:15;;;;;;;5.53;2.65;;;;;;;;;;4909010;29;20039;-75
2022/08/16 14:45:41;;;;;;;6.70;2.90;;;;;;;;;;4918608;29;20511;-77
2022/08/16 14:48:07;;;;;;;9.10;2.70;;;;;;;;;;4935494;29;20039;-75
2022/08/16 14:50:33;;;;;;;4.70;2.60;;;;;;;;;;4935447;29;20045;-78
2022/08/16 14:53:03;;;;;;;10.95;3.00;;;;;;;;;;4933863;29;20039;-76